Time;durP1;ratioP1;P1;durP2;ratioP2;P2;SDS_P1;SDS_P2;PMS_P1;PMS_P2;Temp;Humidity;BMP_temperature;BMP_pressure;BME280_temperature;BME280_humidity;BME280_pressure;Samples;Min_cycle;Max_cycle;Signal;HPM_P1;HPM_P2
2023/09/13 00:01:27;;;;;;;2.15;1.95;;;;;;;;;;4980163;28;20121;-75
2023/09/13 00:03:52;;;;;;;4.40;2.03;;;;;;;;;;4994666;28;20090;-75
2023/09/13 00:06:18;;;;;;;2.85;2.55;;;;;;;;;;5022320;28;20059;-75
2023/09/13 00:08:43;;;;;;;3.97;2.20;;;;;;;;;;5018278;28;20449;-74
2023/09/13 00:11:08;;;;;;;2.53;2.30;;;;;;;;;;5022850;28;20025;-75
2023/09/13 00:13:33;;;;;;;2.22;2.03;;;;;;;;;;5020494;28;20037;-75
2023/09/13 00:15:59;;;;;;;2.83;1.90;;;;;;;;;;5020010;28;20037;-75
2023/09/13 00:18:24;;;;;;;3.10;2.50;;;;;;;;;;5019725;28;20087;-75
2023/09/13 00:20:53;;;;;;;4.32;2.35;;;;;;;;;;5022928;28;20112;-75
2023/09/13 00:23:18;;;;;;;3.25;2.25;;;;;;;;;;5022042;28;20026;-75
2023/09/13 00:25:43;;;;;;;2.90;2.22;;;;;;;;;;5028638;28;20525;-75
2023/09/13 00:28:09;;;;;;;3.05;2.22;;;;;;;;;;5023660;28;20049;-75
2023/09/13 00:30:34;;;;;;;3.20;2.38;;;;;;;;;;5030493;28;21465;-75
2023/09/13 00:32:59;;;;;;;5.28;2.88;;;;;;;;;;5025939;28;20435;-75
2023/09/13 00:35:25;;;;;;;3.90;2.67;;;;;;;;;;5025393;28;20036;-74
2023/09/13 00:37:50;;;;;;;3.15;2.53;;;;;;;;;;5025833;28;20079;-75
2023/09/13 00:40:16;;;;;;;3.05;2.50;;;;;;;;;;5024429;28;20474;-75
2023/09/13 00:42:41;;;;;;;3.30;2.50;;;;;;;;;;5025788;28;20030;-75
2023/09/13 00:45:07;;;;;;;3.65;2.70;;;;;;;;;;5024795;28;20383;-75
2023/09/13 00:47:33;;;;;;;4.75;2.53;;;;;;;;;;5029659;28;20025;-74
2023/09/13 00:49:58;;;;;;;4.10;2.50;;;;;;;;;;5025665;28;20033;-74
2023/09/13 00:52:24;;;;;;;4.68;2.72;;;;;;;;;;5028370;28;20029;-75
2023/09/13 00:54:50;;;;;;;3.30;2.40;;;;;;;;;;5035020;28;20044;-74
2023/09/13 00:57:15;;;;;;;5.68;2.72;;;;;;;;;;5030669;28;20369;-74
2023/09/13 00:59:40;;;;;;;2.53;2.30;;;;;;;;;;5048516;28;20026;-75
2023/09/13 01:02:06;;;;;;;4.90;3.15;;;;;;;;;;5030516;28;20030;-75
2023/09/13 01:04:34;;;;;;;2.75;2.38;;;;;;;;;;5024753;28;20114;-74
2023/09/13 01:07:00;;;;;;;3.70;2.65;;;;;;;;;;5024937;28;20079;-74
2023/09/13 01:09:25;;;;;;;7.55;2.88;;;;;;;;;;5028137;28;20562;-75
2023/09/13 01:11:50;;;;;;;4.85;2.58;;;;;;;;;;5025347;28;20025;-75
2023/09/13 01:14:16;;;;;;;5.13;2.90;;;;;;;;;;5023208;28;20365;-74
2023/09/13 01:16:56;;;;;;;11.32;3.10;;;;;;;;;;5031902;28;20539;-75
2023/09/13 01:19:52;;;;;;;4.53;2.90;;;;;;;;;;5002582;28;20037;-75
2023/09/13 01:22:29;;;;;;;9.35;3.08;;;;;;;;;;5024426;28;20131;-74
2023/09/13 01:25:21;;;;;;;3.88;3.20;;;;;;;;;;5005592;28;20195;-75
2023/09/13 01:27:55;;;;;;;3.67;2.75;;;;;;;;;;5025845;28;20061;-75
2023/09/13 01:30:23;;;;;;;3.88;3.03;;;;;;;;;;5023883;28;20055;-75
2023/09/13 01:32:50;;;;;;;7.38;2.92;;;;;;;;;;5028259;28;20031;-74
2023/09/13 01:35:15;;;;;;;5.35;2.90;;;;;;;;;;5024230;28;20074;-74
2023/09/13 01:37:41;;;;;;;3.92;3.03;;;;;;;;;;5027195;28;20422;-75
2023/09/13 01:40:08;;;;;;;2.75;2.55;;;;;;;;;;5020080;28;20037;-74
2023/09/13 01:42:37;;;;;;;3.97;2.97;;;;;;;;;;5022192;28;20103;-75
2023/09/13 01:45:04;;;;;;;3.45;3.15;;;;;;;;;;5024699;28;20096;-75
2023/09/13 01:47:30;;;;;;;5.38;4.00;;;;;;;;;;5028525;28;20407;-74
2023/09/13 01:49:56;;;;;;;6.97;3.30;;;;;;;;;;5022197;28;20061;-74
2023/09/13 01:52:22;;;;;;;6.70;3.75;;;;;;;;;;5029439;28;20072;-75
2023/09/13 01:54:47;;;;;;;4.35;3.70;;;;;;;;;;5022612;28;20510;-75
2023/09/13 01:57:12;;;;;;;5.93;3.90;;;;;;;;;;5024451;28;20034;-74
2023/09/13 01:59:38;;;;;;;4.82;3.10;;;;;;;;;;5005147;28;20113;-74
2023/09/13 02:02:03;;;;;;;4.47;3.88;;;;;;;;;;5026808;28;20030;-75
2023/09/13 02:04:32;;;;;;;4.80;3.83;;;;;;;;;;5024104;28;20133;-74
2023/09/13 02:06:58;;;;;;;3.97;3.58;;;;;;;;;;5024382;28;20215;-75
2023/09/13 02:09:23;;;;;;;9.65;4.18;;;;;;;;;;5024185;28;20722;-75
2023/09/13 02:11:49;;;;;;;7.30;4.13;;;;;;;;;;5027321;28;20375;-74
2023/09/13 02:14:14;;;;;;;12.02;4.15;;;;;;;;;;5023482;28;20040;-75
2023/09/13 02:16:39;;;;;;;7.35;4.35;;;;;;;;;;5023335;28;20058;-75
2023/09/13 02:19:04;;;;;;;8.32;3.63;;;;;;;;;;5023904;28;20034;-75
2023/09/13 02:21:30;;;;;;;13.38;4.68;;;;;;;;;;5000948;28;20394;-75
2023/09/13 02:23:56;;;;;;;9.35;4.78;;;;;;;;;;5022180;28;20491;-75
2023/09/13 02:26:22;;;;;;;14.00;4.40;;;;;;;;;;5023526;28;20044;-74
2023/09/13 02:28:48;;;;;;;4.40;3.85;;;;;;;;;;5020468;28;20057;-74
2023/09/13 02:31:20;;;;;;;9.32;4.78;;;;;;;;;;5023608;28;20057;-74
2023/09/13 02:33:46;;;;;;;4.57;4.00;;;;;;;;;;5021698;28;20106;-73
2023/09/13 02:36:11;;;;;;;7.68;4.47;;;;;;;;;;5023405;28;20053;-73
2023/09/13 02:38:36;;;;;;;6.32;4.55;;;;;;;;;;5024486;28;20021;-74
2023/09/13 02:41:03;;;;;;;6.35;4.53;;;;;;;;;;5022102;28;20065;-74
2023/09/13 02:43:28;;;;;;;9.02;4.50;;;;;;;;;;5018283;28;20096;-73
2023/09/13 02:45:53;;;;;;;7.60;4.75;;;;;;;;;;5025663;28;20065;-74
2023/09/13 02:48:18;;;;;;;6.90;4.85;;;;;;;;;;5022886;28;20502;-73
2023/09/13 02:50:44;;;;;;;6.35;4.50;;;;;;;;;;5024256;28;20056;-73
2023/09/13 02:53:09;;;;;;;9.98;4.63;;;;;;;;;;5027242;28;20060;-74
2023/09/13 02:55:34;;;;;;;13.32;5.03;;;;;;;;;;5023753;28;20037;-73
2023/09/13 02:57:59;;;;;;;6.32;5.00;;;;;;;;;;5023010;28;20095;-74
2023/09/13 03:00:25;;;;;;;5.90;4.75;;;;;;;;;;5022943;28;20147;-74
2023/09/13 03:02:50;;;;;;;6.30;4.82;;;;;;;;;;5020860;28;20116;-74
2023/09/13 03:05:15;;;;;;;5.82;5.07;;;;;;;;;;5022673;28;20448;-73
2023/09/13 03:07:41;;;;;;;7.20;4.75;;;;;;;;;;5022351;28;20128;-74
2023/09/13 03:10:07;;;;;;;8.10;5.05;;;;;;;;;;5031380;28;20061;-74
2023/09/13 03:12:33;;;;;;;7.75;5.30;;;;;;;;;;5015183;28;20049;-74
2023/09/13 03:14:59;;;;;;;7.22;5.20;;;;;;;;;;5027841;28;20053;-74
2023/09/13 03:17:24;;;;;;;7.68;5.10;;;;;;;;;;5085887;28;20033;-74
2023/09/13 03:19:49;;;;;;;8.30;5.07;;;;;;;;;;5019934;28;20037;-74
2023/09/13 03:22:14;;;;;;;10.75;5.47;;;;;;;;;;5022551;28;20040;-73
2023/09/13 03:24:41;;;;;;;8.20;5.00;;;;;;;;;;5021112;28;20092;-73
2023/09/13 03:27:07;;;;;;;6.28;5.45;;;;;;;;;;5022306;28;20037;-73
2023/09/13 03:29:33;;;;;;;8.55;5.45;;;;;;;;;;5002013;28;20117;-74
2023/09/13 03:31:58;;;;;;;8.52;5.55;;;;;;;;;;5028070;28;20128;-74
2023/09/13 03:34:23;;;;;;;8.02;5.38;;;;;;;;;;5021817;28;20098;-74
2023/09/13 03:36:48;;;;;;;8.55;5.30;;;;;;;;;;5027500;28;20024;-74
2023/09/13 03:39:14;;;;;;;8.52;7.03;;;;;;;;;;5024519;28;20433;-74
2023/09/13 03:41:39;;;;;;;8.80;6.15;;;;;;;;;;5023429;28;20047;-74
2023/09/13 03:44:04;;;;;;;18.42;5.60;;;;;;;;;;5023339;28;20033;-74
2023/09/13 03:46:30;;;;;;;8.45;5.25;;;;;;;;;;5028884;28;20063;-76
2023/09/13 03:48:55;;;;;;;7.15;5.05;;;;;;;;;;5020769;28;20139;-76
2023/09/13 03:51:20;;;;;;;11.02;4.95;;;;;;;;;;5025412;28;20518;-75
2023/09/13 03:53:47;;;;;;;5.22;3.70;;;;;;;;;;5023744;28;20030;-76
2023/09/13 03:56:12;;;;;;;5.38;3.30;;;;;;;;;;5021387;28;20039;-76
2023/09/13 03:58:37;;;;;;;4.10;3.63;;;;;;;;;;5001846;28;20050;-75
2023/09/13 04:01:04;;;;;;;7.53;4.07;;;;;;;;;;5026332;28;20681;-76
2023/09/13 04:03:29;;;;;;;6.75;4.43;;;;;;;;;;5020160;28;20524;-76
2023/09/13 04:05:55;;;;;;;5.82;4.30;;;;;;;;;;5021145;28;20104;-76
2023/09/13 04:08:20;;;;;;;7.25;4.60;;;;;;;;;;5032371;28;20068;-76
2023/09/13 04:10:45;;;;;;;8.88;4.68;;;;;;;;;;5004196;28;20033;-74
2023/09/13 04:13:11;;;;;;;8.50;5.10;;;;;;;;;;5010595;28;20037;-74
2023/09/13 04:15:36;;;;;;;7.95;4.90;;;;;;;;;;5021444;28;20502;-76
2023/09/13 04:18:03;;;;;;;8.40;5.10;;;;;;;;;;5017327;28;20025;-75
2023/09/13 04:20:29;;;;;;;7.75;4.95;;;;;;;;;;5001229;28;20438;-75
2023/09/13 04:22:54;;;;;;;8.02;5.20;;;;;;;;;;5022484;28;20042;-75
2023/09/13 04:25:19;;;;;;;8.27;4.90;;;;;;;;;;5023308;28;20699;-75
2023/09/13 04:27:45;;;;;;;8.02;5.25;;;;;;;;;;5010022;28;20042;-75
2023/09/13 04:30:11;;;;;;;9.57;4.90;;;;;;;;;;5021000;28;20030;-75
2023/09/13 04:32:38;;;;;;;8.50;5.20;;;;;;;;;;5013925;28;20191;-75
2023/09/13 04:35:04;;;;;;;6.47;4.72;;;;;;;;;;5012517;28;20446;-75
2023/09/13 04:37:30;;;;;;;7.40;4.55;;;;;;;;;;5015613;28;20088;-75
2023/09/13 04:39:56;;;;;;;8.60;4.20;;;;;;;;;;5020214;28;20086;-75
2023/09/13 04:42:21;;;;;;;7.00;4.82;;;;;;;;;;5016774;28;20486;-75
2023/09/13 04:44:46;;;;;;;7.85;5.53;;;;;;;;;;5031259;28;20594;-75
2023/09/13 04:47:11;;;;;;;10.30;5.13;;;;;;;;;;5017270;28;20037;-75
2023/09/13 04:49:37;;;;;;;6.13;4.78;;;;;;;;;;5017388;28;20419;-75
2023/09/13 04:52:03;;;;;;;8.13;4.68;;;;;;;;;;5013558;28;20034;-75
2023/09/13 04:54:28;;;;;;;4.75;4.25;;;;;;;;;;5019110;28;20045;-76
2023/09/13 04:56:54;;;;;;;5.57;4.20;;;;;;;;;;5015159;28;20708;-75
2023/09/13 04:59:23;;;;;;;5.55;4.47;;;;;;;;;;5034835;28;20040;-75
2023/09/13 05:01:49;;;;;;;6.43;4.80;;;;;;;;;;5080655;28;20557;-75
2023/09/13 05:04:14;;;;;;;21.00;13.65;;;;;;;;;;5022063;28;20096;-73
2023/09/13 05:06:39;;;;;;;12.52;7.35;;;;;;;;;;5021723;28;20532;-74
2023/09/13 05:09:05;;;;;;;12.13;5.18;;;;;;;;;;5026069;28;20037;-73
2023/09/13 05:11:30;;;;;;;7.80;5.93;;;;;;;;;;5029790;28;20166;-74
2023/09/13 05:14:22;;;;;;;9.35;5.90;;;;;;;;;;5028434;28;20073;-74
2023/09/13 05:16:47;;;;;;;17.27;6.22;;;;;;;;;;5018555;28;20038;-74
2023/09/13 05:19:12;;;;;;;9.00;6.30;;;;;;;;;;5018524;28;20038;-74
2023/09/13 05:21:38;;;;;;;10.57;6.47;;;;;;;;;;5020636;28;20102;-73
2023/09/13 05:24:03;;;;;;;9.80;6.70;;;;;;;;;;5021178;28;20049;-74
2023/09/13 05:26:29;;;;;;;12.75;7.20;;;;;;;;;;5018208;28;20041;-75
2023/09/13 05:28:55;;;;;;;8.68;6.65;;;;;;;;;;5019390;28;20045;-74
2023/09/13 05:31:20;;;;;;;9.27;6.70;;;;;;;;;;5010845;28;20042;-74
2023/09/13 05:33:45;;;;;;;14.77;7.13;;;;;;;;;;5013841;28;20046;-74
2023/09/13 05:36:15;;;;;;;12.00;8.00;;;;;;;;;;5016346;28;20494;-73
2023/09/13 05:38:41;;;;;;;10.77;7.47;;;;;;;;;;4997806;28;20390;-74
2023/09/13 05:41:10;;;;;;;16.52;7.47;;;;;;;;;;5013344;28;20047;-73
2023/09/13 05:43:37;;;;;;;16.77;8.00;;;;;;;;;;5011575;28;20035;-73
2023/09/13 05:46:03;;;;;;;13.65;7.25;;;;;;;;;;5015185;28;20121;-74
2023/09/13 05:48:28;;;;;;;11.80;6.82;;;;;;;;;;5023621;28;20041;-74
2023/09/13 05:50:53;;;;;;;10.10;7.68;;;;;;;;;;5024802;28;20021;-74
2023/09/13 05:53:19;;;;;;;9.70;7.28;;;;;;;;;;5013205;28;20056;-73
2023/09/13 05:55:46;;;;;;;11.35;8.00;;;;;;;;;;5032857;28;20041;-73
2023/09/13 05:58:11;;;;;;;13.93;8.57;;;;;;;;;;5020198;28;20041;-73
2023/09/13 06:00:36;;;;;;;10.55;8.63;;;;;;;;;;4993011;28;20041;-73
2023/09/13 06:03:02;;;;;;;10.23;7.90;;;;;;;;;;5018423;28;20486;-73
2023/09/13 06:05:27;;;;;;;10.25;7.47;;;;;;;;;;5014762;28;20032;-73
2023/09/13 06:07:53;;;;;;;11.50;7.63;;;;;;;;;;5017423;28;20041;-73
2023/09/13 06:10:18;;;;;;;12.98;8.50;;;;;;;;;;5018230;28;20503;-73
2023/09/13 06:12:43;;;;;;;14.45;8.88;;;;;;;;;;4999801;28;20029;-73
2023/09/13 06:15:09;;;;;;;14.02;8.70;;;;;;;;;;5024220;28;20136;-74
2023/09/13 06:17:36;;;;;;;12.63;8.85;;;;;;;;;;5025537;28;20494;-73
2023/09/13 06:20:04;;;;;;;12.13;8.25;;;;;;;;;;5023130;28;20040;-74
2023/09/13 06:22:29;;;;;;;12.75;8.35;;;;;;;;;;5022095;28;20090;-74
2023/09/13 06:24:54;;;;;;;10.48;8.38;;;;;;;;;;5028542;28;20037;-74
2023/09/13 06:27:19;;;;;;;13.77;8.13;;;;;;;;;;5020119;28;20671;-74
2023/09/13 06:29:45;;;;;;;11.68;7.88;;;;;;;;;;5020500;28;20050;-73
2023/09/13 06:32:10;;;;;;;11.48;7.85;;;;;;;;;;5029548;28;20152;-74
2023/09/13 06:34:35;;;;;;;10.00;7.75;;;;;;;;;;5015105;28;20064;-73
2023/09/13 06:37:02;;;;;;;10.90;8.25;;;;;;;;;;5017852;28;20038;-74
2023/09/13 06:39:28;;;;;;;14.75;7.80;;;;;;;;;;5006105;28;20050;-74
2023/09/13 06:41:53;;;;;;;10.30;8.02;;;;;;;;;;5017472;28;20076;-74
2023/09/13 06:44:18;;;;;;;8.93;7.35;;;;;;;;;;5003631;28;20422;-74
2023/09/13 06:46:43;;;;;;;8.60;6.30;;;;;;;;;;5017312;28;20056;-74
2023/09/13 06:49:09;;;;;;;13.45;7.43;;;;;;;;;;5001575;28;20049;-74
2023/09/13 06:51:34;;;;;;;9.70;7.00;;;;;;;;;;5018652;28;20034;-74
2023/09/13 06:53:59;;;;;;;8.88;7.20;;;;;;;;;;5015296;28;20171;-74
2023/09/13 06:56:25;;;;;;;7.75;6.53;;;;;;;;;;5012930;28;20053;-74
2023/09/13 06:58:50;;;;;;;9.63;6.88;;;;;;;;;;5018102;28;20041;-73
2023/09/13 07:01:16;;;;;;;6.65;5.95;;;;;;;;;;5017442;28;20037;-74
2023/09/13 07:03:41;;;;;;;6.60;5.45;;;;;;;;;;5017314;28;20129;-74
2023/09/13 07:06:06;;;;;;;6.22;5.20;;;;;;;;;;5032327;28;20037;-74
2023/09/13 07:08:32;;;;;;;5.93;5.32;;;;;;;;;;5014781;28;20309;-73
2023/09/13 07:10:57;;;;;;;8.43;5.18;;;;;;;;;;5014896;28;20042;-73
2023/09/13 07:13:22;;;;;;;7.07;4.60;;;;;;;;;;5015734;28;20056;-73
2023/09/13 07:15:48;;;;;;;8.23;4.55;;;;;;;;;;5017301;28;20049;-73
2023/09/13 07:18:13;;;;;;;5.53;4.50;;;;;;;;;;5007015;28;20061;-74
2023/09/13 07:20:38;;;;;;;5.18;4.15;;;;;;;;;;4993835;28;20148;-74
2023/09/13 07:23:04;;;;;;;6.30;4.38;;;;;;;;;;5019633;28;20033;-74
2023/09/13 07:25:29;;;;;;;4.38;3.47;;;;;;;;;;5002038;28;20037;-74
2023/09/13 07:27:54;;;;;;;4.85;3.88;;;;;;;;;;5016527;28;20475;-74
2023/09/13 07:30:20;;;;;;;4.60;3.45;;;;;;;;;;5014720;28;20029;-74
2023/09/13 07:32:48;;;;;;;7.10;3.38;;;;;;;;;;5020107;28;20476;-74
2023/09/13 07:35:14;;;;;;;8.23;3.53;;;;;;;;;;5013023;28;20119;-74
2023/09/13 07:37:39;;;;;;;3.70;3.13;;;;;;;;;;5016832;28;20405;-74
2023/09/13 07:40:05;;;;;;;5.03;3.38;;;;;;;;;;5017637;28;20087;-74
2023/09/13 07:42:30;;;;;;;4.85;3.20;;;;;;;;;;5015476;28;20094;-74
2023/09/13 07:44:56;;;;;;;4.03;3.05;;;;;;;;;;5022470;28;20022;-73
2023/09/13 07:47:22;;;;;;;5.65;3.20;;;;;;;;;;5020623;28;20161;-74
2023/09/13 07:49:47;;;;;;;4.75;3.13;;;;;;;;;;5010471;28;20125;-74
2023/09/13 07:52:14;;;;;;;3.90;3.10;;;;;;;;;;4992794;28;20117;-74
2023/09/13 07:54:39;;;;;;;4.80;3.40;;;;;;;;;;5012533;28;20072;-74
2023/09/13 07:57:05;;;;;;;7.07;3.00;;;;;;;;;;5014877;28;20455;-74
2023/09/13 07:59:31;;;;;;;6.38;3.67;;;;;;;;;;5013298;28;20436;-74
2023/09/13 08:01:56;;;;;;;3.20;2.90;;;;;;;;;;5018412;28;20026;-74
2023/09/13 08:04:22;;;;;;;4.97;3.55;;;;;;;;;;5009850;28;20517;-74
2023/09/13 08:06:47;;;;;;;3.55;2.88;;;;;;;;;;5018749;28;20419;-74
2023/09/13 08:09:16;;;;;;;3.38;2.90;;;;;;;;;;5011148;28;20503;-74
2023/09/13 08:11:42;;;;;;;3.75;2.80;;;;;;;;;;4998604;28;20117;-74
2023/09/13 08:14:07;;;;;;;5.97;3.08;;;;;;;;;;5019060;28;21728;-74
2023/09/13 08:16:32;;;;;;;6.00;2.80;;;;;;;;;;5016749;28;20456;-74
2023/09/13 08:18:58;;;;;;;7.72;3.22;;;;;;;;;;5015042;28;20110;-74
2023/09/13 08:21:23;;;;;;;3.65;3.22;;;;;;;;;;5010810;28;20093;-74
2023/09/13 08:23:48;;;;;;;5.30;3.50;;;;;;;;;;5020756;28;20022;-74
2023/09/13 08:26:14;;;;;;;4.00;3.38;;;;;;;;;;5011712;28;20405;-74
2023/09/13 08:28:39;;;;;;;5.35;3.63;;;;;;;;;;5010166;28;20034;-74
2023/09/13 08:31:04;;;;;;;5.05;3.33;;;;;;;;;;4999271;28;20037;-74
2023/09/13 08:33:29;;;;;;;7.85;3.70;;;;;;;;;;5017979;28;20036;-74
2023/09/13 08:35:55;;;;;;;9.70;3.97;;;;;;;;;;5015030;28;20431;-74
2023/09/13 08:38:20;;;;;;;3.53;3.10;;;;;;;;;;5014978;28;20108;-74
2023/09/13 08:40:46;;;;;;;6.78;3.25;;;;;;;;;;5012290;28;20472;-74
2023/09/13 08:43:12;;;;;;;7.05;3.47;;;;;;;;;;5017144;28;20052;-74
2023/09/13 08:45:39;;;;;;;5.72;4.13;;;;;;;;;;5015851;28;20036;-74
2023/09/13 08:48:07;;;;;;;5.45;4.55;;;;;;;;;;5025216;28;20053;-74
2023/09/13 08:50:34;;;;;;;5.95;4.30;;;;;;;;;;5017481;28;20025;-74
2023/09/13 08:53:01;;;;;;;4.28;3.88;;;;;;;;;;5017973;28;20042;-74
2023/09/13 08:55:27;;;;;;;6.15;3.75;;;;;;;;;;5015614;28;20046;-74
2023/09/13 08:57:54;;;;;;;6.38;3.63;;;;;;;;;;5017218;28;20044;-75
2023/09/13 09:00:20;;;;;;;5.35;3.55;;;;;;;;;;5002175;28;20034;-74
2023/09/13 09:02:48;;;;;;;9.43;3.72;;;;;;;;;;5015863;28;20502;-74
2023/09/13 09:05:15;;;;;;;6.20;3.67;;;;;;;;;;5018493;28;20037;-74
2023/09/13 09:07:42;;;;;;;4.47;3.50;;;;;;;;;;5029489;28;20041;-74
2023/09/13 09:10:11;;;;;;;8.38;4.35;;;;;;;;;;5030797;28;20038;-74
2023/09/13 09:12:38;;;;;;;3.58;3.22;;;;;;;;;;5019586;28;20045;-74
2023/09/13 09:15:05;;;;;;;5.28;3.20;;;;;;;;;;5023594;28;20021;-74
2023/09/13 09:17:32;;;;;;;4.28;3.38;;;;;;;;;;5031499;28;20025;-74
2023/09/13 09:19:59;;;;;;;5.63;3.55;;;;;;;;;;5024340;28;20241;-74
2023/09/13 09:22:24;;;;;;;4.75;3.60;;;;;;;;;;5010787;28;20398;-74
2023/09/13 09:24:50;;;;;;;3.88;3.33;;;;;;;;;;5010542;28;20041;-73
2023/09/13 09:27:15;;;;;;;6.90;3.08;;;;;;;;;;5019881;28;20025;-72
2023/09/13 09:29:40;;;;;;;6.45;3.05;;;;;;;;;;5017763;28;20029;-73
2023/09/13 09:32:08;;;;;;;3.97;3.22;;;;;;;;;;5020235;28;20513;-72
2023/09/13 09:34:37;;;;;;;6.53;3.25;;;;;;;;;;5013740;28;20453;-73
2023/09/13 09:37:12;;;;;;;3.65;3.35;;;;;;;;;;5022539;28;20042;-73
2023/09/13 09:39:41;;;;;;;4.65;3.60;;;;;;;;;;5029816;28;20381;-73
2023/09/13 09:42:06;;;;;;;3.65;3.33;;;;;;;;;;5015338;28;20021;-73
2023/09/13 09:44:32;;;;;;;5.38;3.40;;;;;;;;;;5008523;28;20032;-73
2023/09/13 09:46:58;;;;;;;7.40;3.72;;;;;;;;;;5019059;28;20523;-73
2023/09/13 09:49:24;;;;;;;4.40;3.80;;;;;;;;;;5024120;28;20036;-73
2023/09/13 09:51:50;;;;;;;4.45;4.00;;;;;;;;;;5007354;28;20088;-72
2023/09/13 09:54:15;;;;;;;5.63;3.63;;;;;;;;;;5006691;28;20022;-72
2023/09/13 09:56:40;;;;;;;7.40;3.97;;;;;;;;;;5010976;28;20071;-74
2023/09/13 09:59:06;;;;;;;8.50;4.15;;;;;;;;;;5004118;28;20138;-72
2023/09/13 10:01:31;;;;;;;6.85;4.22;;;;;;;;;;5028765;28;20045;-72
2023/09/13 10:04:07;;;;;;;5.47;4.28;;;;;;;;;;5009229;28;20073;-74
2023/09/13 10:06:32;;;;;;;8.77;4.28;;;;;;;;;;5011252;28;20503;-73
2023/09/13 10:08:59;;;;;;;4.43;3.95;;;;;;;;;;5025392;28;20028;-73
2023/09/13 10:11:25;;;;;;;5.65;3.90;;;;;;;;;;5024425;28;20444;-73
2023/09/13 10:13:52;;;;;;;9.60;4.78;;;;;;;;;;5029642;28;20029;-73
2023/09/13 10:16:18;;;;;;;5.47;4.07;;;;;;;;;;5024664;28;20030;-73
2023/09/13 10:18:49;;;;;;;7.13;4.60;;;;;;;;;;5024318;28;20036;-73
2023/09/13 10:21:20;;;;;;;5.85;4.78;;;;;;;;;;5023993;28;20112;-73
2023/09/13 10:23:52;;;;;;;6.82;4.80;;;;;;;;;;5030369;28;20027;-73
2023/09/13 10:26:18;;;;;;;6.45;4.80;;;;;;;;;;5020998;28;20708;-73
2023/09/13 10:28:49;;;;;;;5.43;4.93;;;;;;;;;;5024254;28;20048;-73
2023/09/13 10:31:21;;;;;;;10.25;5.05;;;;;;;;;;5020737;28;20037;-73
2023/09/13 10:33:51;;;;;;;6.10;5.50;;;;;;;;;;5023532;28;20040;-73
2023/09/13 10:36:38;;;;;;;7.10;5.03;;;;;;;;;;5003275;28;20475;-73
2023/09/13 10:39:25;;;;;;;6.68;4.93;;;;;;;;;;5021484;28;20115;-73
2023/09/13 10:42:04;;;;;;;9.10;4.90;;;;;;;;;;5018588;28;20079;-73
2023/09/13 10:44:30;;;;;;;6.07;5.20;;;;;;;;;;5026906;28;20321;-74
2023/09/13 10:46:55;;;;;;;8.13;5.32;;;;;;;;;;5031153;28;20277;-74
2023/09/13 10:49:21;;;;;;;9.30;6.05;;;;;;;;;;5023006;28;20381;-73
2023/09/13 10:51:48;;;;;;;7.65;5.45;;;;;;;;;;5022078;28;20041;-74
2023/09/13 10:54:15;;;;;;;10.95;6.50;;;;;;;;;;5024137;28;20024;-73
2023/09/13 10:56:40;;;;;;;8.65;7.00;;;;;;;;;;5030456;28;20033;-73
2023/09/13 10:59:06;;;;;;;9.73;7.18;;;;;;;;;;5088697;28;20074;-73
2023/09/13 11:01:34;;;;;;;10.32;6.43;;;;;;;;;;5023065;28;20487;-73
2023/09/13 11:03:59;;;;;;;8.02;7.22;;;;;;;;;;5024010;28;20038;-75
2023/09/13 11:06:26;;;;;;;11.55;7.18;;;;;;;;;;5023406;28;20522;-75
2023/09/13 11:08:52;;;;;;;6.38;3.78;;;;;;;;;;5022981;28;20109;-75
2023/09/13 11:11:21;;;;;;;7.35;4.28;;;;;;;;;;5022535;28;20125;-74
2023/09/13 11:13:53;;;;;;;3.55;3.05;;;;;;;;;;5021389;28;20034;-74
2023/09/13 11:16:22;;;;;;;10.40;3.67;;;;;;;;;;5088996;28;20022;-74
2023/09/13 11:18:56;;;;;;;7.97;3.08;;;;;;;;;;5023536;28;20037;-74
2023/09/13 11:21:26;;;;;;;7.78;4.20;;;;;;;;;;5023340;28;20026;-75
2023/09/13 11:23:52;;;;;;;8.55;4.65;;;;;;;;;;5024000;28;20452;-74
2023/09/13 11:26:41;;;;;;;7.30;4.70;;;;;;;;;;5028106;28;20041;-74
2023/09/13 11:29:25;;;;;;;6.95;4.97;;;;;;;;;;5023354;28;20458;-75
2023/09/13 11:32:01;;;;;;;7.85;5.68;;;;;;;;;;5022495;28;20129;-75
2023/09/13 11:34:26;;;;;;;11.73;7.38;;;;;;;;;;5020166;28;20030;-75
2023/09/13 11:37:10;;;;;;;11.48;7.45;;;;;;;;;;5002253;28;20434;-75
2023/09/13 11:39:36;;;;;;;11.82;6.72;;;;;;;;;;5003926;28;20534;-75
2023/09/13 11:42:04;;;;;;;9.40;6.45;;;;;;;;;;5022530;28;20029;-74
2023/09/13 11:44:30;;;;;;;10.18;6.35;;;;;;;;;;5041160;28;20045;-75
2023/09/13 11:46:55;;;;;;;11.63;7.00;;;;;;;;;;5031440;28;20075;-74
2023/09/13 11:49:23;;;;;;;9.82;7.13;;;;;;;;;;5019586;28;20032;-74
2023/09/13 11:51:53;;;;;;;14.13;7.22;;;;;;;;;;5022812;28;20091;-74
2023/09/13 11:54:19;;;;;;;11.73;8.52;;;;;;;;;;5015066;28;20125;-75
2023/09/13 11:56:45;;;;;;;15.88;9.50;;;;;;;;;;5029826;28;20052;-75
2023/09/13 11:59:12;;;;;;;13.80;10.48;;;;;;;;;;5015629;28;20065;-75
2023/09/13 12:01:42;;;;;;;21.33;9.50;;;;;;;;;;5024386;28;20036;-75
2023/09/13 12:04:09;;;;;;;15.43;8.45;;;;;;;;;;5028331;28;20052;-75
2023/09/13 12:06:46;;;;;;;16.15;9.65;;;;;;;;;;5019432;28;20041;-76
2023/09/13 12:09:16;;;;;;;14.70;9.23;;;;;;;;;;5020896;28;20418;-75
2023/09/13 12:11:50;;;;;;;13.73;10.18;;;;;;;;;;5018526;28;20025;-74
2023/09/13 12:14:16;;;;;;;14.53;9.53;;;;;;;;;;5022575;28;20037;-75
2023/09/13 12:16:42;;;;;;;14.23;10.10;;;;;;;;;;5014435;28;20030;-76
2023/09/13 12:19:11;;;;;;;14.38;10.23;;;;;;;;;;4998719;28;20052;-75
2023/09/13 12:21:36;;;;;;;16.10;10.98;;;;;;;;;;5012218;28;20053;-75
2023/09/13 12:24:02;;;;;;;22.15;11.38;;;;;;;;;;5015984;28;20025;-76
2023/09/13 12:26:27;;;;;;;17.20;11.15;;;;;;;;;;5013280;28;20033;-75
2023/09/13 12:28:53;;;;;;;15.82;10.68;;;;;;;;;;5000220;28;20045;-75
2023/09/13 12:31:20;;;;;;;17.88;12.60;;;;;;;;;;5025457;28;20041;-75
2023/09/13 12:33:48;;;;;;;20.63;11.88;;;;;;;;;;5026327;28;20046;-75
2023/09/13 12:36:15;;;;;;;19.73;12.55;;;;;;;;;;5018949;28;20028;-75
2023/09/13 12:38:40;;;;;;;23.60;14.00;;;;;;;;;;5024469;28;20082;-75
2023/09/13 12:41:06;;;;;;;18.20;12.50;;;;;;;;;;5018899;28;20398;-75
2023/09/13 12:43:32;;;;;;;18.58;12.95;;;;;;;;;;5013105;28;20481;-75
2023/09/13 12:45:58;;;;;;;17.90;12.05;;;;;;;;;;5023310;28;20041;-75
2023/09/13 12:48:25;;;;;;;19.73;12.57;;;;;;;;;;5022281;28;20376;-74
2023/09/13 12:50:51;;;;;;;20.25;12.18;;;;;;;;;;5086601;28;20108;-74
2023/09/13 12:53:16;;;;;;;17.40;12.57;;;;;;;;;;5024756;28;20132;-75
2023/09/13 12:55:42;;;;;;;20.63;12.80;;;;;;;;;;5017568;28;20045;-75
2023/09/13 12:58:08;;;;;;;22.20;12.65;;;;;;;;;;5015137;28;20042;-75
2023/09/13 13:00:46;;;;;;;22.95;11.95;;;;;;;;;;5021466;28;20117;-75
2023/09/13 13:03:12;;;;;;;20.73;12.35;;;;;;;;;;5018510;28;20034;-76
2023/09/13 13:05:41;;;;;;;19.52;12.68;;;;;;;;;;5017792;28;20356;-75
2023/09/13 13:08:07;;;;;;;16.70;11.65;;;;;;;;;;5021549;28;20042;-75
2023/09/13 13:10:32;;;;;;;17.33;11.80;;;;;;;;;;5022656;28;20035;-75
2023/09/13 13:12:57;;;;;;;15.60;11.07;;;;;;;;;;5010307;28;20033;-74
2023/09/13 13:15:30;;;;;;;16.92;10.98;;;;;;;;;;5035287;28;20066;-75
2023/09/13 13:17:55;;;;;;;16.85;12.35;;;;;;;;;;5013496;28;20072;-75
2023/09/13 13:20:21;;;;;;;20.25;13.40;;;;;;;;;;5018166;28;21035;-75
2023/09/13 13:22:46;;;;;;;17.98;11.80;;;;;;;;;;5013597;27;20491;-75
2023/09/13 13:25:11;;;;;;;18.45;11.63;;;;;;;;;;5011732;28;20029;-75
2023/09/13 13:27:36;;;;;;;18.45;12.65;;;;;;;;;;5018048;28;20033;-76
2023/09/13 13:30:02;;;;;;;19.52;12.57;;;;;;;;;;5003484;28;20060;-75
2023/09/13 13:32:27;;;;;;;21.65;12.82;;;;;;;;;;5015658;28;20534;-75
2023/09/13 13:34:53;;;;;;;14.85;10.73;;;;;;;;;;5015764;28;20069;-75
2023/09/13 13:37:18;;;;;;;19.85;11.57;;;;;;;;;;5011704;28;20046;-74
2023/09/13 13:39:44;;;;;;;19.48;12.40;;;;;;;;;;5026709;28;20037;-75
2023/09/13 13:42:09;;;;;;;21.52;12.80;;;;;;;;;;5021479;28;20017;-75
2023/09/13 13:44:36;;;;;;;15.07;10.60;;;;;;;;;;5023289;28;20030;-75
2023/09/13 13:47:02;;;;;;;21.27;12.45;;;;;;;;;;5027848;28;20037;-75
2023/09/13 13:49:28;;;;;;;20.65;13.15;;;;;;;;;;5026913;28;20041;-75
2023/09/13 13:51:53;;;;;;;18.38;12.35;;;;;;;;;;5024916;28;20033;-75
2023/09/13 13:54:18;;;;;;;19.48;13.57;;;;;;;;;;5020069;28;20017;-74
2023/09/13 13:56:44;;;;;;;18.60;12.95;;;;;;;;;;5012499;28;20036;-75
2023/09/13 13:59:10;;;;;;;19.38;12.75;;;;;;;;;;5021183;28;20052;-75
2023/09/13 14:01:36;;;;;;;22.33;14.27;;;;;;;;;;5022632;28;20124;-75
2023/09/13 14:04:01;;;;;;;23.05;14.10;;;;;;;;;;4999234;28;20043;-75
2023/09/13 14:06:27;;;;;;;35.40;14.20;;;;;;;;;;5025273;28;20525;-75
2023/09/13 14:08:52;;;;;;;21.20;14.02;;;;;;;;;;5020580;28;20027;-75
2023/09/13 14:11:17;;;;;;;19.77;12.85;;;;;;;;;;5015864;28;20037;-75
2023/09/13 14:13:42;;;;;;;18.38;13.38;;;;;;;;;;4995340;28;20529;-75
2023/09/13 14:16:08;;;;;;;20.50;13.93;;;;;;;;;;5014221;28;20033;-75
2023/09/13 14:18:33;;;;;;;26.70;15.13;;;;;;;;;;5014083;28;20048;-75
2023/09/13 14:20:58;;;;;;;19.88;14.25;;;;;;;;;;5013421;28;20108;-74
2023/09/13 14:23:25;;;;;;;22.58;14.40;;;;;;;;;;5023437;28;20086;-75
2023/09/13 14:25:50;;;;;;;30.13;15.00;;;;;;;;;;5019996;28;20103;-74
2023/09/13 14:28:16;;;;;;;20.60;13.57;;;;;;;;;;5027126;28;20042;-75
2023/09/13 14:30:41;;;;;;;23.75;14.10;;;;;;;;;;5020114;28;20493;-75
2023/09/13 14:33:07;;;;;;;20.35;13.27;;;;;;;;;;5016551;28;20029;-75